sensor_id;sensor_type;location;lat;lon;timestamp;pressure;altitude;pressure_sealevel;temperature;humidity
16451;BME280;12243;42.708;23.310;2023-11-19T00:00:59;94981.41;;;3.63;90.57
16451;BME280;12243;42.708;23.310;2023-11-19T00:03:26;94989.84;;;3.65;90.56
16451;BME280;12243;42.708;23.310;2023-11-19T00:05:55;94991.75;;;3.62;90.68
16451;BME280;12243;42.708;23.310;2023-11-19T00:08:22;94994.28;;;3.63;90.48
16451;BME280;12243;42.708;23.310;2023-11-19T00:10:50;94967.94;;;3.58;90.98
16451;BME280;12243;42.708;23.310;2023-11-19T00:13:17;94980.16;;;3.54;91.08
16451;BME280;12243;42.708;23.310;2023-11-19T00:15:44;94985.63;;;3.48;90.57
16451;BME280;12243;42.708;23.310;2023-11-19T00:18:13;94975.94;;;3.53;90.94
16451;BME280;12243;42.708;23.310;2023-11-19T00:20:40;94982.06;;;3.51;90.96
16451;BME280;12243;42.708;23.310;2023-11-19T00:23:11;94983.66;;;3.53;90.74
16451;BME280;12243;42.708;23.310;2023-11-19T00:25:38;94991.88;;;3.60;90.68
16451;BME280;12243;42.708;23.310;2023-11-19T00:28:05;94988.19;;;3.64;91.17
16451;BME280;12243;42.708;23.310;2023-11-19T00:30:32;94989.34;;;3.58;90.87
16451;BME280;12243;42.708;23.310;2023-11-19T00:32:59;94986.13;;;3.55;90.61
16451;BME280;12243;42.708;23.310;2023-11-19T00:35:26;94991.88;;;3.60;91.16
16451;BME280;12243;42.708;23.310;2023-11-19T00:37:53;94984.69;;;3.65;90.55
16451;BME280;12243;42.708;23.310;2023-11-19T00:40:22;94994.28;;;3.63;90.66
16451;BME280;12243;42.708;23.310;2023-11-19T00:42:49;94989.84;;;3.65;90.75
16451;BME280;12243;42.708;23.310;2023-11-19T00:45:16;94991.38;;;3.53;90.59
16451;BME280;12243;42.708;23.310;2023-11-19T00:47:43;94986.72;;;3.44;91.44
16451;BME280;12243;42.708;23.310;2023-11-19T00:50:10;95011.97;;;3.38;91.56
16451;BME280;12243;42.708;23.310;2023-11-19T00:52:38;95001.53;;;3.41;91.85
16451;BME280;12243;42.708;23.310;2023-11-19T00:55:06;94998.13;;;3.40;92.29
16451;BME280;12243;42.708;23.310;2023-11-19T00:57:34;94995.97;;;3.32;92.52
16451;BME280;12243;42.708;23.310;2023-11-19T01:00:01;95001.13;;;3.32;92.50
16451;BME280;12243;42.708;23.310;2023-11-19T01:02:32;94977.69;;;3.37;92.43
16451;BME280;12243;42.708;23.310;2023-11-19T01:05:00;94991.41;;;3.38;92.43
16451;BME280;12243;42.708;23.310;2023-11-19T01:07:27;94987.44;;;3.32;92.60
16451;BME280;12243;42.708;23.310;2023-11-19T01:09:53;94989.91;;;3.33;92.60
16451;BME280;12243;42.708;23.310;2023-11-19T01:12:20;95002.88;;;3.32;92.25
16451;BME280;12243;42.708;23.310;2023-11-19T01:14:49;95003.09;;;3.43;92.79
16451;BME280;12243;42.708;23.310;2023-11-19T01:17:16;95006.81;;;3.53;91.90
16451;BME280;12243;42.708;23.310;2023-11-19T01:19:44;95001.94;;;3.49;91.48
16451;BME280;12243;42.708;23.310;2023-11-19T01:22:11;95001.19;;;3.47;91.41
16451;BME280;12243;42.708;23.310;2023-11-19T01:24:37;94995.38;;;3.43;91.48
16451;BME280;12243;42.708;23.310;2023-11-19T01:27:04;95005.94;;;3.39;91.75
16451;BME280;12243;42.708;23.310;2023-11-19T01:29:31;95005.03;;;3.40;92.11
16451;BME280;12243;42.708;23.310;2023-11-19T01:32:01;94987.81;;;3.40;92.01
16451;BME280;12243;42.708;23.310;2023-11-19T01:34:27;95000.03;;;3.37;91.85
16451;BME280;12243;42.708;23.310;2023-11-19T01:36:54;95005.25;;;3.51;91.38
16451;BME280;12243;42.708;23.310;2023-11-19T01:39:21;95004.53;;;3.49;91.00
16451;BME280;12243;42.708;23.310;2023-11-19T01:41:48;95007.75;;;3.37;91.35
16451;BME280;12243;42.708;23.310;2023-11-19T01:44:15;95025.59;;;3.24;91.58
16451;BME280;12243;42.708;23.310;2023-11-19T01:46:44;95010.44;;;3.19;91.51
16451;BME280;12243;42.708;23.310;2023-11-19T01:49:15;95014.09;;;3.15;91.90
16451;BME280;12243;42.708;23.310;2023-11-19T01:51:42;95013.16;;;3.16;90.81
16451;BME280;12243;42.708;23.310;2023-11-19T01:54:09;95028.94;;;3.10;90.89
16451;BME280;12243;42.708;23.310;2023-11-19T01:56:38;95029.84;;;3.09;90.65
16451;BME280;12243;42.708;23.310;2023-11-19T01:59:09;95030.19;;;3.19;90.75
16451;BME280;12243;42.708;23.310;2023-11-19T02:01:39;95033.75;;;3.16;90.45
16451;BME280;12243;42.708;23.310;2023-11-19T02:04:07;95045.53;;;3.20;90.30
16451;BME280;12243;42.708;23.310;2023-11-19T02:06:37;95039.34;;;3.24;89.79
16451;BME280;12243;42.708;23.310;2023-11-19T02:09:06;95026.53;;;3.23;89.74
16451;BME280;12243;42.708;23.310;2023-11-19T02:11:33;95029.59;;;3.29;89.74
16451;BME280;12243;42.708;23.310;2023-11-19T02:14:04;95020.97;;;3.30;89.24
16451;BME280;12243;42.708;23.310;2023-11-19T02:16:31;95023.13;;;3.22;89.64
16451;BME280;12243;42.708;23.310;2023-11-19T02:18:58;95019.31;;;3.29;89.32
16451;BME280;12243;42.708;23.310;2023-11-19T02:21:25;95017.81;;;3.25;89.55
16451;BME280;12243;42.708;23.310;2023-11-19T02:23:53;95015.81;;;3.30;89.67
16451;BME280;12243;42.708;23.310;2023-11-19T02:26:25;95016.72;;;3.29;89.71
16451;BME280;12243;42.708;23.310;2023-11-19T02:28:57;95008.78;;;3.18;89.36
16451;BME280;12243;42.708;23.310;2023-11-19T02:31:24;95018.16;;;3.19;89.65
16451;BME280;12243;42.708;23.310;2023-11-19T02:33:53;95002.81;;;3.18;90.27
16451;BME280;12243;42.708;23.310;2023-11-19T02:36:20;94990.44;;;3.08;90.21
16451;BME280;12243;42.708;23.310;2023-11-19T02:38:47;94994.00;;;3.06;90.13
16451;BME280;12243;42.708;23.310;2023-11-19T02:41:15;95003.56;;;3.04;90.58
16451;BME280;12243;42.708;23.310;2023-11-19T02:43:42;95005.84;;;2.93;90.63
16451;BME280;12243;42.708;23.310;2023-11-19T02:46:10;95005.28;;;2.88;91.49
16451;BME280;12243;42.708;23.310;2023-11-19T02:48:37;95015.00;;;2.82;91.99
16451;BME280;12243;42.708;23.310;2023-11-19T02:51:06;95027.44;;;2.90;92.06
16451;BME280;12243;42.708;23.310;2023-11-19T02:53:35;95014.81;;;2.85;91.82
16451;BME280;12243;42.708;23.310;2023-11-19T02:56:03;95012.84;;;2.91;91.53
16451;BME280;12243;42.708;23.310;2023-11-19T02:58:37;94995.31;;;2.81;91.90
16451;BME280;12243;42.708;23.310;2023-11-19T03:01:04;95006.84;;;2.74;92.34
16451;BME280;12243;42.708;23.310;2023-11-19T03:03:39;95012.25;;;2.85;92.03
16451;BME280;12243;42.708;23.310;2023-11-19T03:06:07;95010.03;;;2.79;92.18
16451;BME280;12243;42.708;23.310;2023-11-19T03:08:36;95016.06;;;2.78;92.03
16451;BME280;12243;42.708;23.310;2023-11-19T03:11:03;95020.22;;;2.81;91.93
16451;BME280;12243;42.708;23.310;2023-11-19T03:13:31;95027.09;;;2.80;91.77
16451;BME280;12243;42.708;23.310;2023-11-19T03:15:58;95035.72;;;2.79;92.17
16451;BME280;12243;42.708;23.310;2023-11-19T03:18:24;95028.19;;;2.76;92.22
16451;BME280;12243;42.708;23.310;2023-11-19T03:20:53;95024.59;;;2.79;91.91
16451;BME280;12243;42.708;23.310;2023-11-19T03:23:20;95029.72;;;2.79;91.79
16451;BME280;12243;42.708;23.310;2023-11-19T03:25:48;95030.25;;;2.85;91.97
16451;BME280;12243;42.708;23.310;2023-11-19T03:28:15;95025.28;;;2.82;91.06
16451;BME280;12243;42.708;23.310;2023-11-19T03:30:42;95029.25;;;2.88;91.50
16451;BME280;12243;42.708;23.310;2023-11-19T03:33:09;95026.28;;;2.80;91.73
16451;BME280;12243;42.708;23.310;2023-11-19T03:35:36;95018.56;;;2.80;91.84
16451;BME280;12243;42.708;23.310;2023-11-19T03:38:04;95026.13;;;2.83;91.86
16451;BME280;12243;42.708;23.310;2023-11-19T03:40:31;95035.38;;;2.85;91.76
16451;BME280;12243;42.708;23.310;2023-11-19T03:42:58;95042.13;;;2.88;91.62
16451;BME280;12243;42.708;23.310;2023-11-19T03:45:25;95042.06;;;2.90;91.59
16451;BME280;12243;42.708;23.310;2023-11-19T03:47:52;95051.31;;;2.92;91.08
16451;BME280;12243;42.708;23.310;2023-11-19T03:50:19;95055.97;;;2.85;92.00
16451;BME280;12243;42.708;23.310;2023-11-19T03:52:46;95062.78;;;2.86;91.74
16451;BME280;12243;42.708;23.310;2023-11-19T03:55:15;95057.81;;;2.83;91.50
16451;BME280;12243;42.708;23.310;2023-11-19T03:57:41;95056.31;;;2.79;92.18
16451;BME280;12243;42.708;23.310;2023-11-19T04:00:09;95058.38;;;2.89;91.55
16451;BME280;12243;42.708;23.310;2023-11-19T04:02:39;95073.97;;;2.85;91.23
16451;BME280;12243;42.708;23.310;2023-11-19T04:05:07;95068.66;;;2.89;91.43
16451;BME280;12243;42.708;23.310;2023-11-19T04:07:35;95072.72;;;2.93;91.12
16451;BME280;12243;42.708;23.310;2023-11-19T04:10:02;95071.69;;;2.97;90.98
16451;BME280;12243;42.708;23.310;2023-11-19T04:12:31;95082.69;;;2.99;90.90
16451;BME280;12243;42.708;23.310;2023-11-19T04:14:58;95090.25;;;3.02;91.02
16451;BME280;12243;42.708;23.310;2023-11-19T04:17:25;95094.84;;;3.13;90.92
16451;BME280;12243;42.708;23.310;2023-11-19T04:19:52;95088.88;;;3.12;90.29
16451;BME280;12243;42.708;23.310;2023-11-19T04:22:19;95092.19;;;3.14;90.40
16451;BME280;12243;42.708;23.310;2023-11-19T04:24:46;95090.19;;;3.19;90.28
16451;BME280;12243;42.708;23.310;2023-11-19T04:27:14;95088.56;;;3.18;90.03
16451;BME280;12243;42.708;23.310;2023-11-19T04:29:42;95088.78;;;3.14;90.04
16451;BME280;12243;42.708;23.310;2023-11-19T04:32:09;95080.56;;;3.07;90.14
16451;BME280;12243;42.708;23.310;2023-11-19T04:34:36;95091.44;;;3.12;89.95
16451;BME280;12243;42.708;23.310;2023-11-19T04:37:03;95100.81;;;3.13;90.09
16451;BME280;12243;42.708;23.310;2023-11-19T04:39:30;95095.34;;;3.19;89.89
16451;BME280;12243;42.708;23.310;2023-11-19T04:41:57;95090.81;;;3.24;89.45
16451;BME280;12243;42.708;23.310;2023-11-19T04:44:25;95092.00;;;3.17;89.66
16451;BME280;12243;42.708;23.310;2023-11-19T04:46:53;95091.94;;;3.19;89.74
16451;BME280;12243;42.708;23.310;2023-11-19T04:49:20;95111.09;;;3.13;89.21
16451;BME280;12243;42.708;23.310;2023-11-19T04:51:47;95097.81;;;3.05;89.72
16451;BME280;12243;42.708;23.310;2023-11-19T04:54:14;95111.09;;;3.13;90.02
16451;BME280;12243;42.708;23.310;2023-11-19T04:56:45;95100.97;;;3.10;89.82
16451;BME280;12243;42.708;23.310;2023-11-19T04:59:12;95096.16;;;3.04;90.11
16451;BME280;12243;42.708;23.310;2023-11-19T05:01:39;95107.44;;;3.17;89.29
16451;BME280;12243;42.708;23.310;2023-11-19T05:04:07;95110.22;;;3.14;89.94
16451;BME280;12243;42.708;23.310;2023-11-19T05:06:34;95124.25;;;3.24;89.29
16451;BME280;12243;42.708;23.310;2023-11-19T05:09:01;95137.50;;;3.17;88.54
16451;BME280;12243;42.708;23.310;2023-11-19T05:11:30;95138.69;;;3.11;88.98
16451;BME280;12243;42.708;23.310;2023-11-19T05:13:58;95130.19;;;3.09;89.37
16451;BME280;12243;42.708;23.310;2023-11-19T05:16:25;95127.94;;;3.03;89.74
16451;BME280;12243;42.708;23.310;2023-11-19T05:18:52;95122.06;;;3.01;90.12
16451;BME280;12243;42.708;23.310;2023-11-19T05:21:20;95119.16;;;3.07;89.63
16451;BME280;12243;42.708;23.310;2023-11-19T05:23:47;95122.47;;;3.09;89.25
16451;BME280;12243;42.708;23.310;2023-11-19T05:26:18;95125.28;;;3.04;89.52
16451;BME280;12243;42.708;23.310;2023-11-19T05:28:46;95122.28;;;2.96;89.47
16451;BME280;12243;42.708;23.310;2023-11-19T05:31:13;95117.81;;;3.00;90.16
16451;BME280;12243;42.708;23.310;2023-11-19T05:33:40;95119.06;;;3.08;89.65
16451;BME280;12243;42.708;23.310;2023-11-19T05:36:07;95125.50;;;3.00;89.13
16451;BME280;12243;42.708;23.310;2023-11-19T05:38:36;95129.94;;;2.98;89.58
16451;BME280;12243;42.708;23.310;2023-11-19T05:41:04;95128.84;;;3.02;89.69
16451;BME280;12243;42.708;23.310;2023-11-19T05:43:31;95130.34;;;3.06;89.36
16451;BME280;12243;42.708;23.310;2023-11-19T05:45:58;95134.00;;;3.02;89.23
16451;BME280;12243;42.708;23.310;2023-11-19T05:48:27;95133.69;;;3.08;89.34
16451;BME280;12243;42.708;23.310;2023-11-19T05:50:54;95140.47;;;3.09;88.96
16451;BME280;12243;42.708;23.310;2023-11-19T05:53:21;95139.19;;;3.18;88.79
16451;BME280;12243;42.708;23.310;2023-11-19T05:55:49;95144.16;;;3.21;88.11
16451;BME280;12243;42.708;23.310;2023-11-19T05:58:24;95147.94;;;3.14;88.62
16451;BME280;12243;42.708;23.310;2023-11-19T06:00:54;95148.97;;;3.11;89.24
16451;BME280;12243;42.708;23.310;2023-11-19T06:03:21;95154.69;;;3.16;89.18
16451;BME280;12243;42.708;23.310;2023-11-19T06:05:48;95159.41;;;3.08;89.09
16451;BME280;12243;42.708;23.310;2023-11-19T06:08:16;95156.56;;;2.97;89.26
16451;BME280;12243;42.708;23.310;2023-11-19T06:10:44;95163.22;;;3.01;89.97
16451;BME280;12243;42.708;23.310;2023-11-19T06:13:13;95158.06;;;3.01;89.91
16451;BME280;12243;42.708;23.310;2023-11-19T06:15:41;95152.84;;;3.02;89.59
16451;BME280;12243;42.708;23.310;2023-11-19T06:18:10;95166.53;;;3.03;89.26
16451;BME280;12243;42.708;23.310;2023-11-19T06:20:38;95161.38;;;3.03;89.98
16451;BME280;12243;42.708;23.310;2023-11-19T06:23:05;95160.69;;;2.99;89.82
16451;BME280;12243;42.708;23.310;2023-11-19T06:25:32;95162.44;;;2.99;89.87
16451;BME280;12243;42.708;23.310;2023-11-19T06:28:01;95163.06;;;3.04;89.19
16451;BME280;12243;42.708;23.310;2023-11-19T06:30:29;95166.38;;;3.06;89.46
16451;BME280;12243;42.708;23.310;2023-11-19T06:32:58;95165.78;;;3.01;89.31
16451;BME280;12243;42.708;23.310;2023-11-19T06:35:26;95151.44;;;2.97;88.98
16451;BME280;12243;42.708;23.310;2023-11-19T06:37:54;95162.69;;;2.94;89.74
16451;BME280;12243;42.708;23.310;2023-11-19T06:40:21;95172.16;;;2.94;89.84
16451;BME280;12243;42.708;23.310;2023-11-19T06:42:48;95168.97;;;2.89;90.06
16451;BME280;12243;42.708;23.310;2023-11-19T06:45:15;95171.66;;;3.03;89.67
16451;BME280;12243;42.708;23.310;2023-11-19T06:47:44;95174.63;;;2.95;89.63
16451;BME280;12243;42.708;23.310;2023-11-19T06:50:11;95176.09;;;2.83;89.20
16451;BME280;12243;42.708;23.310;2023-11-19T06:52:38;95159.03;;;2.82;88.86
16451;BME280;12243;42.708;23.310;2023-11-19T06:55:05;95165.81;;;2.83;88.53
16451;BME280;12243;42.708;23.310;2023-11-19T06:57:33;95172.75;;;2.81;89.14
16451;BME280;12243;42.708;23.310;2023-11-19T06:59:59;95172.16;;;2.94;88.42
16451;BME280;12243;42.708;23.310;2023-11-19T07:02:26;95163.06;;;3.04;87.99
16451;BME280;12243;42.708;23.310;2023-11-19T07:04:54;95175.94;;;3.04;87.47
16451;BME280;12243;42.708;23.310;2023-11-19T07:07:21;95176.97;;;3.00;87.55
16451;BME280;12243;42.708;23.310;2023-11-19T07:09:49;95177.88;;;2.99;87.76
16451;BME280;12243;42.708;23.310;2023-11-19T07:12:16;95185.44;;;3.02;87.15
16451;BME280;12243;42.708;23.310;2023-11-19T07:14:44;95179.38;;;3.03;87.73
16451;BME280;12243;42.708;23.310;2023-11-19T07:17:12;95180.91;;;3.07;87.80
16451;BME280;12243;42.708;23.310;2023-11-19T07:19:39;95174.69;;;3.11;87.80
16451;BME280;12243;42.708;23.310;2023-11-19T07:22:07;95169.81;;;2.89;87.63
16451;BME280;12243;42.708;23.310;2023-11-19T07:24:34;95182.91;;;2.84;88.19
16451;BME280;12243;42.708;23.310;2023-11-19T07:27:01;95180.94;;;2.90;88.54
16451;BME280;12243;42.708;23.310;2023-11-19T07:29:29;95173.75;;;2.79;88.67
16451;BME280;12243;42.708;23.310;2023-11-19T07:31:57;95186.44;;;2.99;88.27
16451;BME280;12243;42.708;23.310;2023-11-19T07:34:24;95195.91;;;2.99;88.44
16451;BME280;12243;42.708;23.310;2023-11-19T07:36:50;95216.88;;;2.91;87.52
16451;BME280;12243;42.708;23.310;2023-11-19T07:39:19;95195.59;;;2.88;87.69
16451;BME280;12243;42.708;23.310;2023-11-19T07:41:46;95200.22;;;2.98;87.47
16451;BME280;12243;42.708;23.310;2023-11-19T07:44:14;95204.81;;;3.09;86.76
16451;BME280;12243;42.708;23.310;2023-11-19T07:46:41;95208.72;;;3.16;85.73
16451;BME280;12243;42.708;23.310;2023-11-19T07:49:08;95209.13;;;3.08;86.16
16451;BME280;12243;42.708;23.310;2023-11-19T07:51:35;95213.19;;;3.13;86.06
16451;BME280;12243;42.708;23.310;2023-11-19T07:54:03;95207.38;;;3.09;86.05
16451;BME280;12243;42.708;23.310;2023-11-19T07:56:33;95215.19;;;3.07;85.84
16451;BME280;12243;42.708;23.310;2023-11-19T07:59:01;95213.28;;;3.11;86.24
16451;BME280;12243;42.708;23.310;2023-11-19T08:01:27;95207.69;;;3.03;85.55
16451;BME280;12243;42.708;23.310;2023-11-19T08:03:54;95216.31;;;3.02;85.82
16451;BME280;12243;42.708;23.310;2023-11-19T08:06:21;95225.31;;;3.10;86.51
16451;BME280;12243;42.708;23.310;2023-11-19T08:08:48;95227.50;;;3.18;85.71
16451;BME280;12243;42.708;23.310;2023-11-19T08:11:15;95230.97;;;3.17;85.14
16451;BME280;12243;42.708;23.310;2023-11-19T08:13:43;95230.03;;;3.36;84.93
16451;BME280;12243;42.708;23.310;2023-11-19T08:16:10;95236.84;;;3.37;84.45
16451;BME280;12243;42.708;23.310;2023-11-19T08:18:40;95233.84;;;3.28;84.69
16451;BME280;12243;42.708;23.310;2023-11-19T08:21:08;95235.50;;;3.29;85.30
16451;BME280;12243;42.708;23.310;2023-11-19T08:23:35;95231.69;;;3.37;85.88
16451;BME280;12243;42.708;23.310;2023-11-19T08:26:04;95231.56;;;3.55;85.43
16451;BME280;12243;42.708;23.310;2023-11-19T08:28:31;95238.13;;;3.61;84.26
16451;BME280;12243;42.708;23.310;2023-11-19T08:31:01;95239.94;;;3.59;84.73
16451;BME280;12243;42.708;23.310;2023-11-19T08:33:29;95230.31;;;3.47;84.22
16451;BME280;12243;42.708;23.310;2023-11-19T08:35:56;95236.69;;;3.40;85.08
16451;BME280;12243;42.708;23.310;2023-11-19T08:38:24;95253.59;;;3.28;84.79
16451;BME280;12243;42.708;23.310;2023-11-19T08:40:51;95252.31;;;3.19;85.09
16451;BME280;12243;42.708;23.310;2023-11-19T08:43:18;95248.69;;;3.23;85.18
16451;BME280;12243;42.708;23.310;2023-11-19T08:45:45;95252.38;;;3.35;85.49
16451;BME280;12243;42.708;23.310;2023-11-19T08:48:13;95236.03;;;3.52;84.58
16451;BME280;12243;42.708;23.310;2023-11-19T08:50:40;95236.81;;;3.54;84.29
16451;BME280;12243;42.708;23.310;2023-11-19T08:53:07;95239.22;;;3.57;84.39
16451;BME280;12243;42.708;23.310;2023-11-19T08:55:34;95244.28;;;3.58;83.47
16451;BME280;12243;42.708;23.310;2023-11-19T08:58:02;95252.75;;;3.61;82.88
16451;BME280;12243;42.708;23.310;2023-11-19T09:00:29;95248.69;;;3.72;83.61
16451;BME280;12243;42.708;23.310;2023-11-19T09:02:58;95234.75;;;3.76;82.76
16451;BME280;12243;42.708;23.310;2023-11-19T09:05:26;95229.94;;;3.70;82.15
16451;BME280;12243;42.708;23.310;2023-11-19T09:07:53;95229.78;;;3.73;81.42
16451;BME280;12243;42.708;23.310;2023-11-19T09:10:20;95222.59;;;3.47;82.39
16451;BME280;12243;42.708;23.310;2023-11-19T09:12:48;95224.25;;;3.48;82.91
16451;BME280;12243;42.708;23.310;2023-11-19T09:15:15;95227.44;;;3.53;81.71
16451;BME280;12243;42.708;23.310;2023-11-19T09:17:42;95227.22;;;3.40;82.08
16451;BME280;12243;42.708;23.310;2023-11-19T09:20:10;95225.25;;;3.45;82.62
16451;BME280;12243;42.708;23.310;2023-11-19T09:22:42;95237.56;;;3.56;81.92
16451;BME280;12243;42.708;23.310;2023-11-19T09:25:09;95244.38;;;3.57;82.44
16451;BME280;12243;42.708;23.310;2023-11-19T09:27:36;95251.94;;;3.60;82.55
16451;BME280;12243;42.708;23.310;2023-11-19T09:30:03;95268.53;;;3.54;82.25
16451;BME280;12243;42.708;23.310;2023-11-19T09:32:31;95250.00;;;3.48;82.35
16451;BME280;12243;42.708;23.310;2023-11-19T09:34:58;95236.22;;;3.49;81.72
16451;BME280;12243;42.708;23.310;2023-11-19T09:37:26;95224.84;;;3.53;82.36
16451;BME280;12243;42.708;23.310;2023-11-19T09:39:54;95226.28;;;3.74;81.81
16451;BME280;12243;42.708;23.310;2023-11-19T09:42:23;95221.28;;;3.71;81.01
16451;BME280;12243;42.708;23.310;2023-11-19T09:44:51;95212.75;;;3.71;81.19
16451;BME280;12243;42.708;23.310;2023-11-19T09:47:19;95202.03;;;3.78;80.75
16451;BME280;12243;42.708;23.310;2023-11-19T09:49:46;95197.69;;;3.63;80.78
16451;BME280;12243;42.708;23.310;2023-11-19T09:52:14;95182.06;;;3.82;81.02
16451;BME280;12243;42.708;23.310;2023-11-19T09:54:41;95177.59;;;3.86;80.35
16451;BME280;12243;42.708;23.310;2023-11-19T09:57:10;95185.56;;;3.97;79.76
16451;BME280;12243;42.708;23.310;2023-11-19T09:59:38;95181.00;;;4.02;79.59
16451;BME280;12243;42.708;23.310;2023-11-19T10:02:07;95183.25;;;3.92;79.98
16451;BME280;12243;42.708;23.310;2023-11-19T10:04:35;95182.16;;;3.96;80.22
16451;BME280;12243;42.708;23.310;2023-11-19T10:07:03;95176.41;;;4.07;79.57
16451;BME280;12243;42.708;23.310;2023-11-19T10:09:30;95175.97;;;4.30;79.01
16451;BME280;12243;42.708;23.310;2023-11-19T10:11:57;95173.88;;;4.21;78.87
16451;BME280;12243;42.708;23.310;2023-11-19T10:14:25;95177.38;;;4.20;79.14
16451;BME280;12243;42.708;23.310;2023-11-19T10:16:54;95172.22;;;4.20;79.43
16451;BME280;12243;42.708;23.310;2023-11-19T10:19:24;95183.69;;;4.30;79.08
16451;BME280;12243;42.708;23.310;2023-11-19T10:21:51;95188.69;;;4.34;78.67
16451;BME280;12243;42.708;23.310;2023-11-19T10:24:31;95195.25;;;4.23;79.99
16451;BME280;12243;42.708;23.310;2023-11-19T10:26:59;95180.34;;;4.28;79.47
16451;BME280;12243;42.708;23.310;2023-11-19T10:29:29;95176.63;;;4.18;78.81
16451;BME280;12243;42.708;23.310;2023-11-19T10:31:56;95161.00;;;4.21;79.71
16451;BME280;12243;42.708;23.310;2023-11-19T10:34:27;95168.56;;;4.24;79.80
16451;BME280;12243;42.708;23.310;2023-11-19T10:36:55;95152.94;;;4.27;79.64
16451;BME280;12243;42.708;23.310;2023-11-19T10:39:22;95169.91;;;4.46;78.69
16451;BME280;12243;42.708;23.310;2023-11-19T10:41:50;95166.81;;;4.25;78.35
16451;BME280;12243;42.708;23.310;2023-11-19T10:44:33;95172.22;;;4.20;78.98
16451;BME280;12243;42.708;23.310;2023-11-19T10:47:01;95172.94;;;4.08;78.20
16451;BME280;12243;42.708;23.310;2023-11-19T10:49:32;95175.25;;;3.97;78.75
16451;BME280;12243;42.708;23.310;2023-11-19T10:52:03;95179.75;;;3.93;79.01
16451;BME280;12243;42.708;23.310;2023-11-19T10:54:34;95168.66;;;4.07;78.28
16451;BME280;12243;42.708;23.310;2023-11-19T10:57:02;95166.91;;;4.23;78.63
16451;BME280;12243;42.708;23.310;2023-11-19T10:59:30;95162.91;;;4.34;78.07
16451;BME280;12243;42.708;23.310;2023-11-19T11:02:00;95162.31;;;4.59;77.36
16451;BME280;12243;42.708;23.310;2023-11-19T11:04:33;95150.13;;;5.05;77.56
16451;BME280;12243;42.708;23.310;2023-11-19T11:07:07;95131.31;;;5.32;74.46
16451;BME280;12243;42.708;23.310;2023-11-19T11:09:35;95126.50;;;5.54;73.55
16451;BME280;12243;42.708;23.310;2023-11-19T11:12:04;95118.75;;;5.54;73.66
16451;BME280;12243;42.708;23.310;2023-11-19T11:14:34;95121.50;;;5.65;72.80
16451;BME280;12243;42.708;23.310;2023-11-19T11:17:09;95124.84;;;5.53;73.11
16451;BME280;12243;42.708;23.310;2023-11-19T11:19:38;95123.81;;;5.56;73.75
16451;BME280;12243;42.708;23.310;2023-11-19T11:22:06;95117.56;;;6.01;72.79
16451;BME280;12243;42.708;23.310;2023-11-19T11:25:07;95117.09;;;5.94;71.35
16451;BME280;12243;42.708;23.310;2023-11-19T11:28:14;95116.72;;;6.28;71.25
16451;BME280;12243;42.708;23.310;2023-11-19T11:31:20;95117.41;;;6.30;71.47
16451;BME280;12243;42.708;23.310;2023-11-19T11:34:37;95119.38;;;6.26;71.38
16451;BME280;12243;42.708;23.310;2023-11-19T11:37:13;95125.63;;;6.09;72.41
16451;BME280;12243;42.708;23.310;2023-11-19T11:39:45;95112.38;;;6.41;71.31
16451;BME280;12243;42.708;23.310;2023-11-19T11:42:32;95100.09;;;6.57;70.40
16451;BME280;12243;42.708;23.310;2023-11-19T11:44:59;95096.28;;;6.23;71.18
16451;BME280;12243;42.708;23.310;2023-11-19T11:50:30;95090.53;;;6.32;71.25
16451;BME280;12243;42.708;23.310;2023-11-19T11:53:13;95093.69;;;6.10;71.85
16451;BME280;12243;42.708;23.310;2023-11-19T11:55:53;95092.53;;;6.02;71.38
16451;BME280;12243;42.708;23.310;2023-11-19T11:58:35;95110.03;;;6.11;70.78
16451;BME280;12243;42.708;23.310;2023-11-19T12:01:04;95101.47;;;6.23;70.79
16451;BME280;12243;42.708;23.310;2023-11-19T12:03:35;95099.06;;;6.07;71.39
16451;BME280;12243;42.708;23.310;2023-11-19T12:06:08;95091.63;;;5.88;70.76
16451;BME280;12243;42.708;23.310;2023-11-19T12:08:38;95082.59;;;5.81;71.29
16451;BME280;12243;42.708;23.310;2023-11-19T12:11:05;95080.09;;;5.94;71.75
16451;BME280;12243;42.708;23.310;2023-11-19T12:13:47;95078.81;;;6.14;70.91
16451;BME280;12243;42.708;23.310;2023-11-19T12:16:19;95089.84;;;5.89;71.98
16451;BME280;12243;42.708;23.310;2023-11-19T12:18:47;95076.78;;;5.78;71.88
16451;BME280;12243;42.708;23.310;2023-11-19T12:21:29;95082.78;;;5.78;72.32
16451;BME280;12243;42.708;23.310;2023-11-19T12:23:58;95070.09;;;5.61;72.89
16451;BME280;12243;42.708;23.310;2023-11-19T12:26:33;95075.72;;;5.67;72.97
16451;BME280;12243;42.708;23.310;2023-11-19T12:29:01;95057.63;;;5.67;73.32
16451;BME280;12243;42.708;23.310;2023-11-19T12:31:32;95062.56;;;5.85;73.32
16451;BME280;12243;42.708;23.310;2023-11-19T12:34:05;95053.47;;;5.92;72.56
16451;BME280;12243;42.708;23.310;2023-11-19T12:36:34;95056.75;;;6.08;73.06
16451;BME280;12243;42.708;23.310;2023-11-19T12:39:01;95052.97;;;6.27;71.00
16451;BME280;12243;42.708;23.310;2023-11-19T12:41:29;95045.19;;;6.14;71.80
16451;BME280;12243;42.708;23.310;2023-11-19T12:44:09;95041.91;;;6.25;71.26
16451;BME280;12243;42.708;23.310;2023-11-19T12:46:36;95039.94;;;6.28;70.90
16451;BME280;12243;42.708;23.310;2023-11-19T12:49:03;95031.56;;;6.25;71.89
16451;BME280;12243;42.708;23.310;2023-11-19T12:51:32;95039.69;;;6.06;72.21
16451;BME280;12243;42.708;23.310;2023-11-19T12:54:00;95039.41;;;6.10;74.16
16451;BME280;12243;42.708;23.310;2023-11-19T12:56:27;95034.81;;;6.01;72.92
16451;BME280;12243;42.708;23.310;2023-11-19T12:58:55;95030.06;;;5.95;73.47
16451;BME280;12243;42.708;23.310;2023-11-19T13:01:22;95035.03;;;5.98;73.35
16451;BME280;12243;42.708;23.310;2023-11-19T13:03:49;95020.19;;;5.87;72.98
16451;BME280;12243;42.708;23.310;2023-11-19T13:06:16;95019.88;;;5.92;73.23
16451;BME280;12243;42.708;23.310;2023-11-19T13:08:48;95020.03;;;6.03;72.93
16451;BME280;12243;42.708;23.310;2023-11-19T13:11:31;95021.81;;;5.88;72.67